createdAt,value
2018-07-20T13:04:55.349Z,38.45
2018-07-20T13:13:05.137Z,37.33
2018-07-20T14:16:10.558Z,29.82
2018-07-20T14:18:46.333Z,29.40
2018-07-20T14:21:15.754Z,30.99
2018-07-20T14:23:45.956Z,31.60
2018-07-20T14:26:15.108Z,31.90
2018-07-20T14:28:54.639Z,32.01
2018-07-20T14:31:40.466Z,33.47
2018-07-20T14:34:15.486Z,36.68
2018-07-20T14:36:47.719Z,34.96
2018-07-20T14:39:25.219Z,35.94
2018-07-20T14:41:58.294Z,36.52
2018-07-20T14:51:10.167Z,39.26
2018-07-20T14:54:09.879Z,38.99
2018-07-20T16:07:19.420Z,37.19
2018-07-20T16:09:51.936Z,37.01
2018-07-20T16:12:26.381Z,37.84
2018-07-20T16:15:11.972Z,37.81
2018-07-20T16:17:43.069Z,38.24
2018-07-20T16:20:16.611Z,38.96
2018-07-20T16:22:47.822Z,38.24
2018-07-20T16:25:29.145Z,38.96
2018-07-20T16:28:10.249Z,38.95
2018-07-20T16:30:46.523Z,38.69
2018-07-20T16:33:18.580Z,38.17
2018-07-20T16:36:00.250Z,38.08
2018-07-20T16:38:30.361Z,38.52
2018-07-20T16:45:23.303Z,38.46
2018-07-20T16:47:53.820Z,38.77
2018-07-20T16:50:32.770Z,39.02
2018-07-20T16:53:04.224Z,40.08
2018-07-20T16:55:40.306Z,39.21
2018-07-20T16:58:08.947Z,40.25
2018-07-20T17:00:42.895Z,38.90
2018-07-20T17:03:20.334Z,40.34
2018-07-20T17:05:56.202Z,39.41
2018-07-20T17:08:27.564Z,38.88
2018-07-20T17:10:57.887Z,39.96
2018-07-20T17:13:30.639Z,39.45
2018-07-20T17:16:03.201Z,39.76
2018-07-20T17:18:38.191Z,39.91
2018-07-20T17:21:09.747Z,39.01
2018-07-20T17:23:41.189Z,38.69
2018-07-20T17:26:22.446Z,39.00
2018-07-20T17:29:00.140Z,38.77
2018-07-20T17:31:32.006Z,39.27
2018-07-20T17:34:04.197Z,39.19
2018-07-20T17:36:47.187Z,40.63
2018-07-20T17:39:20.932Z,41.56
2018-07-20T17:41:59.286Z,41.51
2018-07-20T17:47:10.953Z,41.74
2018-07-20T17:49:47.550Z,42.13
2018-07-20T17:52:20.639Z,40.56
2018-07-20T17:54:52.943Z,41.48
2018-07-20T17:57:24.154Z,42.58
2018-07-20T17:59:57.817Z,42.93
2018-07-20T18:02:30.532Z,43.23
2018-07-20T18:05:01.011Z,44.25
2018-07-20T18:07:34.357Z,43.64
2018-07-20T18:10:10.843Z,43.86
2018-07-20T18:12:45.879Z,43.46
2018-07-20T18:15:17.790Z,43.05
2018-07-20T18:17:50.538Z,43.68
2018-07-20T18:20:24.182Z,45.45
2018-07-20T18:23:00.170Z,46.33
2018-07-20T18:25:29.297Z,47.46
2018-07-20T18:28:00.808Z,48.66
2018-07-20T18:30:37.656Z,48.47
2018-07-20T18:33:12.075Z,50.38
2018-07-20T18:35:44.781Z,51.42
2018-07-20T18:38:21.406Z,50.91
2018-07-20T18:40:54.161Z,51.16
2018-07-20T18:43:25.779Z,50.96
2018-07-20T18:46:01.502Z,50.71
2018-07-20T18:48:41.595Z,50.85
2018-07-20T18:51:13.354Z,51.75
2018-07-20T18:53:45.637Z,51.91
2018-07-20T18:56:19.399Z,51.25
2018-07-20T19:01:54.719Z,51.67
2018-07-20T19:04:35.692Z,52.17
2018-07-20T19:10:15.301Z,52.27
2018-07-20T19:15:34.145Z,54.35
2018-07-20T19:18:16.224Z,53.61
2018-07-20T19:43:36.724Z,56.49
2018-07-20T19:46:05.833Z,55.50
2018-07-20T19:48:35.044Z,56.21
2018-07-20T19:51:13.905Z,56.15
2018-07-20T19:53:46.390Z,57.14
2018-07-20T19:59:00.573Z,58.57
2018-07-20T20:01:31.070Z,57.51
2018-07-20T20:04:07.578Z,57.37
2018-07-20T20:06:38.295Z,57.49
2018-07-20T20:09:10.945Z,57.19
2018-07-20T20:11:46.402Z,56.82
2018-07-20T20:14:16.402Z,56.49
2018-07-20T20:16:48.788Z,56.97
2018-07-20T20:19:25.976Z,56.11
2018-07-20T20:22:01.180Z,55.38
2018-07-20T20:24:33.932Z,56.16
2018-07-20T20:27:03.718Z,57.00
2018-07-20T20:29:39.766Z,57.11
2018-07-20T20:32:11.864Z,58.26
2018-07-20T20:34:43.295Z,59.39
2018-07-20T20:37:14.847Z,59.07
2018-07-20T20:39:44.539Z,58.00
2018-07-20T20:42:15.756Z,58.85
2018-07-20T20:44:47.584Z,58.60
2018-07-20T20:47:19.614Z,58.51
2018-07-20T20:49:53.097Z,59.50
2018-07-20T20:52:25.267Z,61.15
2018-07-20T20:54:58.852Z,60.46
2018-07-20T20:57:28.970Z,60.02
2018-07-20T21:00:06.196Z,61.13
2018-07-20T21:02:43.743Z,61.32
2018-07-20T21:05:13.459Z,61.09
2018-07-20T21:07:48.052Z,60.08
2018-07-20T21:10:23.035Z,61.62
2018-07-20T21:12:53.656Z,62.49
2018-07-20T21:15:25.732Z,61.42
2018-07-20T21:17:54.752Z,61.87
2018-07-20T21:20:24.605Z,62.75
2018-07-20T21:22:54.838Z,64.64
2018-07-20T21:25:33.333Z,64.09
2018-07-20T21:28:02.634Z,63.36
2018-07-20T21:30:33.894Z,63.22
2018-07-20T21:33:07.734Z,63.14
2018-07-20T21:35:42.319Z,64.01
2018-07-20T21:38:12.438Z,65.48
2018-07-20T21:40:46.896Z,65.81
2018-07-20T21:43:18.922Z,65.39
2018-07-20T21:45:49.399Z,66.43
2018-07-20T21:48:20.890Z,64.37
2018-07-20T21:50:52.299Z,64.26
2018-07-20T21:53:22.799Z,64.45
2018-07-20T21:55:52.790Z,64.72
2018-07-20T21:58:23.698Z,65.44
2018-07-20T22:00:56.815Z,65.05
2018-07-20T22:03:28.026Z,64.12
2018-07-20T22:05:58.151Z,66.43
2018-07-20T22:08:32.109Z,66.27
2018-07-20T22:11:10.019Z,67.26
2018-07-20T22:13:40.811Z,66.21
2018-07-20T22:16:11.674Z,64.62
2018-07-20T22:18:42.789Z,66.38
2018-07-20T22:21:13.630Z,67.11
2018-07-20T22:23:46.172Z,66.90
2018-07-20T22:26:18.414Z,67.58
2018-07-20T22:28:47.191Z,67.67
2018-07-20T22:31:20.112Z,68.78
2018-07-20T22:33:54.367Z,68.21
2018-07-20T22:36:26.333Z,68.42
2018-07-20T22:38:55.897Z,66.56
2018-07-20T22:41:37.623Z,65.47
2018-07-20T22:44:08.983Z,65.93
2018-07-20T22:46:39.434Z,65.25
2018-07-20T22:49:23.574Z,65.81
2018-07-20T22:52:05.619Z,68.05
2018-07-20T22:54:41.672Z,67.30
2018-07-20T22:57:11.157Z,67.21
2018-07-20T22:59:40.471Z,69.10
2018-07-20T23:02:17.128Z,67.92
2018-07-20T23:04:52.406Z,67.28
2018-07-20T23:07:21.825Z,66.80
2018-07-20T23:09:52.368Z,69.53
2018-07-20T23:12:31.090Z,70.41
2018-07-20T23:15:08.606Z,70.25
2018-07-20T23:17:42.151Z,71.59
2018-07-20T23:20:28.115Z,70.29
2018-07-20T23:23:04.143Z,69.86
2018-07-20T23:25:39.238Z,69.79
2018-07-20T23:28:09.181Z,70.67
2018-07-20T23:30:38.983Z,70.04
2018-07-20T23:33:11.699Z,69.92
2018-07-20T23:35:50.175Z,69.63
2018-07-20T23:38:26.808Z,70.43
2018-07-20T23:41:03.690Z,70.18
2018-07-20T23:43:36.722Z,70.11
2018-07-20T23:46:08.702Z,69.90
2018-07-20T23:48:42.095Z,69.65
2018-07-20T23:51:14.385Z,68.98
2018-07-20T23:53:44.877Z,68.70
2018-07-20T23:56:15.182Z,69.15
2018-07-20T23:58:46.453Z,68.81
